createdAt,value
2022-08-01T00:00:08.995Z,37.68
2022-08-01T00:02:38.974Z,37.08
2022-08-01T00:05:07.102Z,37.10
2022-08-01T00:07:37.593Z,37.06
2022-08-01T00:10:05.697Z,36.87
2022-08-01T00:12:32.857Z,36.76
2022-08-01T00:15:00.020Z,37.02
2022-08-01T00:17:27.460Z,36.90
2022-08-01T00:19:54.647Z,37.03
2022-08-01T00:22:21.826Z,37.09
2022-08-01T00:24:49.265Z,37.06
2022-08-01T00:27:16.428Z,36.45
2022-08-01T00:30:10.756Z,36.48
2022-08-01T00:32:31.871Z,36.98
2022-08-01T00:34:59.047Z,37.22
2022-08-01T00:37:26.264Z,37.55
2022-08-01T00:39:53.755Z,37.81
2022-08-01T00:42:20.946Z,37.73
2022-08-01T00:44:48.107Z,37.21
2022-08-01T00:47:15.584Z,37.63
2022-08-01T00:49:42.804Z,37.47
2022-08-01T00:52:10.120Z,37.30
2022-08-01T00:54:37.589Z,36.96
2022-08-01T00:57:04.840Z,37.43
2022-08-01T00:59:37.280Z,37.23
2022-08-01T01:02:05.118Z,37.32
2022-08-01T01:04:42.285Z,37.30
2022-08-01T01:07:21.748Z,37.34
2022-08-01T01:09:53.603Z,37.13
2022-08-01T01:12:38.291Z,37.32
2022-08-01T01:15:06.052Z,37.50
2022-08-01T01:17:49.735Z,37.10
2022-08-01T01:20:18.984Z,37.45
2022-08-01T01:22:46.350Z,37.48
2022-08-01T01:25:32.490Z,37.73
2022-08-01T01:28:01.258Z,38.19
2022-08-01T01:30:29.313Z,38.11
2022-08-01T01:32:56.553Z,38.41
2022-08-01T01:35:25.550Z,37.74
2022-08-01T01:37:54.680Z,37.35
2022-08-01T01:40:21.910Z,37.51
2022-08-01T01:42:49.399Z,38.13
2022-08-01T01:45:16.566Z,37.68
2022-08-01T01:47:43.743Z,37.18
2022-08-01T01:50:11.250Z,37.05
2022-08-01T01:52:39.224Z,37.22
2022-08-01T01:55:07.067Z,36.99
2022-08-01T01:57:34.553Z,37.09
2022-08-01T02:00:01.734Z,37.38
2022-08-01T02:02:29.085Z,37.07
2022-08-01T02:04:56.574Z,37.61
2022-08-01T02:07:25.318Z,37.49
2022-08-01T02:09:52.528Z,38.26
2022-08-01T02:12:20.103Z,38.26
2022-08-01T02:14:47.310Z,37.87
2022-08-01T02:17:16.637Z,38.52
2022-08-01T02:19:44.111Z,38.11
2022-08-01T02:22:12.586Z,38.13
2022-08-01T02:24:44.885Z,37.82
2022-08-01T02:27:25.940Z,38.60
2022-08-01T02:29:55.852Z,38.63
2022-08-01T02:32:42.738Z,38.91
2022-08-01T02:35:31.346Z,39.50
2022-08-01T02:37:59.083Z,39.03
2022-08-01T02:40:28.573Z,39.63
2022-08-01T02:42:55.893Z,39.08
2022-08-01T02:45:23.806Z,39.00
2022-08-01T02:47:51.084Z,40.07
2022-08-01T02:50:18.245Z,38.58
2022-08-01T02:52:47.553Z,38.82
2022-08-01T02:55:14.726Z,39.62
2022-08-01T02:57:51.831Z,38.85
2022-08-01T03:00:20.241Z,38.94
2022-08-01T03:02:51.583Z,40.46
2022-08-01T03:05:18.960Z,39.68
2022-08-01T03:07:48.528Z,39.05
2022-08-01T03:10:17.140Z,39.78
2022-08-01T03:12:44.608Z,41.53
2022-08-01T03:15:14.418Z,39.78
2022-08-01T03:17:42.063Z,39.95
2022-08-01T03:20:09.764Z,40.58
2022-08-01T03:22:37.222Z,39.33
2022-08-01T03:25:04.592Z,40.34
2022-08-01T03:27:31.752Z,41.91
2022-08-01T03:29:59.172Z,40.82
2022-08-01T03:32:26.969Z,41.72
2022-08-01T03:34:54.231Z,41.88
2022-08-01T03:37:32.807Z,39.84
2022-08-01T03:40:01.884Z,41.94
2022-08-01T03:42:32.518Z,43.21
2022-08-01T03:45:00.623Z,41.60
2022-08-01T03:47:30.820Z,41.93
2022-08-01T03:49:58.892Z,41.30
2022-08-01T03:52:26.913Z,40.02
2022-08-01T03:54:55.593Z,39.52
2022-08-01T03:57:35.736Z,40.31
2022-08-01T04:00:07.780Z,39.72
2022-08-01T04:02:39.379Z,41.15
2022-08-01T04:07:36.611Z,42.29
2022-08-01T04:10:04.463Z,44.30
2022-08-01T04:12:31.986Z,41.67
2022-08-01T04:14:59.649Z,42.22
2022-08-01T04:17:26.816Z,42.37
2022-08-01T04:19:54.266Z,43.71
2022-08-01T04:22:21.599Z,43.26
2022-08-01T04:24:56.966Z,41.98
2022-08-01T04:27:49.177Z,41.48
2022-08-01T04:30:12.769Z,39.58
2022-08-01T04:32:45.689Z,39.41
2022-08-01T04:35:23.099Z,39.82
2022-08-01T04:38:02.676Z,37.00
2022-08-01T04:40:29.840Z,35.74
2022-08-01T04:42:57.032Z,35.78
2022-08-01T04:45:24.489Z,37.44
2022-08-01T04:47:51.653Z,35.76
2022-08-01T04:50:18.907Z,37.38
2022-08-01T04:52:46.375Z,36.78
2022-08-01T04:55:14.183Z,35.19
2022-08-01T04:57:42.239Z,35.21
2022-08-01T05:00:09.873Z,35.40
2022-08-01T05:02:37.513Z,34.86
2022-08-01T05:05:07.044Z,36.33
2022-08-01T05:07:44.365Z,36.01
2022-08-01T05:10:12.811Z,35.30
2022-08-01T05:12:40.527Z,36.30
2022-08-01T05:15:13.164Z,34.70
2022-08-01T05:17:43.460Z,33.72
2022-08-01T05:20:11.361Z,33.07
2022-08-01T05:22:38.755Z,34.83
2022-08-01T05:25:06.593Z,34.24
2022-08-01T05:27:38.724Z,34.54
2022-08-01T05:30:09.633Z,35.03
2022-08-01T05:32:37.012Z,35.55
2022-08-01T05:35:04.371Z,35.76
2022-08-01T05:37:31.806Z,34.71
2022-08-01T05:39:59.083Z,35.48
2022-08-01T05:42:26.243Z,34.38
2022-08-01T05:44:53.729Z,33.62
2022-08-01T05:47:20.904Z,35.19
2022-08-01T05:49:48.100Z,33.22
2022-08-01T05:52:15.566Z,34.10
2022-08-01T05:54:42.748Z,34.04
2022-08-01T05:57:09.921Z,36.42
2022-08-01T05:59:38.642Z,35.50
2022-08-01T06:02:06.035Z,35.44
2022-08-01T06:04:33.789Z,33.59
2022-08-01T06:07:00.994Z,33.30
2022-08-01T06:09:28.268Z,34.04
2022-08-01T06:11:55.722Z,33.44
2022-08-01T06:14:22.908Z,34.15
2022-08-01T06:16:50.112Z,34.34
2022-08-01T06:19:17.568Z,33.38
2022-08-01T06:21:44.766Z,33.19
2022-08-01T06:24:11.949Z,34.45
2022-08-01T06:26:39.404Z,33.49
2022-08-01T06:29:06.589Z,33.75
2022-08-01T06:31:37.150Z,34.22
2022-08-01T06:34:04.652Z,33.42
2022-08-01T06:36:31.835Z,34.76
2022-08-01T06:38:59.000Z,34.48
2022-08-01T06:41:26.473Z,36.17
2022-08-01T06:43:53.658Z,33.86
2022-08-01T06:46:20.845Z,33.60
2022-08-01T06:48:48.330Z,34.10
2022-08-01T06:51:18.635Z,33.78
2022-08-01T06:53:45.815Z,34.34
2022-08-01T06:56:13.310Z,33.25
2022-08-01T06:58:40.651Z,33.11
2022-08-01T07:01:08.442Z,33.21
2022-08-01T07:03:52.822Z,31.62
2022-08-01T07:06:25.570Z,32.15
2022-08-01T07:08:53.338Z,31.03
2022-08-01T07:11:21.198Z,31.59
2022-08-01T07:13:48.393Z,31.40
2022-08-01T07:16:16.214Z,29.54
2022-08-01T07:18:43.430Z,29.80
2022-08-01T07:21:38.388Z,31.59
2022-08-01T07:23:58.149Z,33.11
2022-08-01T07:26:27.689Z,30.75
2022-08-01T07:28:54.887Z,30.57
2022-08-01T07:31:22.466Z,31.75
2022-08-01T07:33:50.064Z,31.83
2022-08-01T07:36:17.648Z,30.55
2022-08-01T07:38:45.330Z,32.02
2022-08-01T07:41:12.641Z,31.82
2022-08-01T07:43:39.816Z,30.18
2022-08-01T07:46:07.530Z,31.04
2022-08-01T07:48:34.739Z,31.20
2022-08-01T07:51:01.934Z,32.33
2022-08-01T07:53:30.169Z,31.93
2022-08-01T07:55:57.370Z,31.33
2022-08-01T07:58:24.548Z,32.17
2022-08-01T08:00:51.999Z,31.29
2022-08-01T08:03:19.468Z,31.07
2022-08-01T08:05:57.689Z,30.72
2022-08-01T08:08:27.185Z,31.90
2022-08-01T08:10:54.615Z,29.09
2022-08-01T08:13:21.820Z,31.47
2022-08-01T08:15:49.504Z,32.03
2022-08-01T08:18:16.739Z,32.44
2022-08-01T08:20:44.325Z,31.63
2022-08-01T08:23:42.545Z,30.60
2022-08-01T08:26:13.642Z,33.13
2022-08-01T08:28:41.082Z,32.59
2022-08-01T08:31:25.226Z,32.49
2022-08-01T08:33:53.318Z,32.63
2022-08-01T08:36:20.498Z,34.12
2022-08-01T08:38:47.967Z,31.31
2022-08-01T08:41:20.676Z,32.47
2022-08-01T08:43:48.461Z,32.13
2022-08-01T08:46:16.025Z,32.87
2022-08-01T08:48:43.338Z,30.81
2022-08-01T08:51:12.351Z,32.83
2022-08-01T08:53:46.126Z,33.86
2022-08-01T08:56:14.354Z,32.95
2022-08-01T08:58:42.533Z,32.53
2022-08-01T09:01:09.925Z,31.89
2022-08-01T09:03:37.533Z,31.72
2022-08-01T09:06:05.126Z,32.20
2022-08-01T09:08:32.527Z,31.47
2022-08-01T09:10:59.767Z,31.08
2022-08-01T09:13:27.238Z,32.35
2022-08-01T09:15:55.037Z,32.27
2022-08-01T09:18:31.438Z,33.17
2022-08-01T09:21:17.990Z,32.12
2022-08-01T09:23:53.542Z,31.62
2022-08-01T09:26:23.181Z,30.90
2022-08-01T09:28:51.820Z,29.90
2022-08-01T09:31:19.731Z,31.43
2022-08-01T09:33:47.834Z,31.53
2022-08-01T09:36:17.943Z,32.02
2022-08-01T09:38:50.792Z,31.28
2022-08-01T09:41:18.260Z,31.46
2022-08-01T09:43:51.251Z,30.57
2022-08-01T09:46:20.527Z,30.74
2022-08-01T09:48:57.065Z,31.71
2022-08-01T09:51:59.043Z,31.66
2022-08-01T09:54:28.716Z,32.13
2022-08-01T09:56:55.939Z,31.39
2022-08-01T09:59:26.375Z,30.82
2022-08-01T10:01:59.272Z,29.89
2022-08-01T10:04:28.535Z,28.72
2022-08-01T10:07:04.593Z,30.67
2022-08-01T10:09:40.336Z,29.70
2022-08-01T10:12:09.155Z,29.37
2022-08-01T10:14:46.326Z,29.97
2022-08-01T10:17:18.092Z,30.39
2022-08-01T10:19:46.454Z,29.45
2022-08-01T10:22:20.008Z,30.23
2022-08-01T10:24:48.266Z,28.38
2022-08-01T10:27:24.563Z,29.67
2022-08-01T10:30:14.158Z,28.57
2022-08-01T10:32:50.487Z,30.12
2022-08-01T10:35:47.024Z,29.40
2022-08-01T10:38:06.510Z,29.12
2022-08-01T10:40:38.701Z,30.68
2022-08-01T10:43:07.112Z,28.96
2022-08-01T10:45:34.455Z,30.37
2022-08-01T10:48:06.164Z,27.67
2022-08-01T10:50:35.130Z,27.52
2022-08-01T10:53:16.023Z,28.12
2022-08-01T10:55:51.656Z,27.52
2022-08-01T10:58:42.880Z,28.73
2022-08-01T11:01:15.915Z,28.85
2022-08-01T11:03:56.557Z,29.11
2022-08-01T11:06:45.270Z,29.44
2022-08-01T11:09:16.437Z,27.40
2022-08-01T11:12:05.714Z,28.68
2022-08-01T11:14:53.993Z,28.25
2022-08-01T11:17:41.866Z,27.52
2022-08-01T11:20:11.459Z,28.22
2022-08-01T11:23:00.569Z,27.82
2022-08-01T11:26:05.422Z,27.88
2022-08-01T11:28:33.102Z,26.62
2022-08-01T11:31:02.951Z,26.33
2022-08-01T11:33:40.728Z,26.41
2022-08-01T11:36:11.000Z,25.56
2022-08-01T11:38:38.164Z,26.67
2022-08-01T11:41:12.134Z,26.30
2022-08-01T11:43:59.416Z,27.89
2022-08-01T11:47:09.924Z,26.20
2022-08-01T11:49:38.485Z,26.89
2022-08-01T11:52:06.651Z,27.89
2022-08-01T11:54:41.358Z,27.57
2022-08-01T11:57:10.330Z,26.45
2022-08-01T11:59:59.891Z,27.74
2022-08-01T12:02:39.402Z,26.27
2022-08-01T12:05:08.194Z,26.98
2022-08-01T12:07:36.667Z,25.19
2022-08-01T12:10:07.952Z,26.41
2022-08-01T12:12:36.291Z,26.09
2022-08-01T12:15:06.925Z,26.79
2022-08-01T12:17:57.367Z,27.63
2022-08-01T12:20:31.593Z,27.18
2022-08-01T12:23:03.905Z,27.32
2022-08-01T12:25:31.077Z,25.67
2022-08-01T12:28:02.647Z,26.44
2022-08-01T12:30:31.977Z,27.09
2022-08-01T12:32:59.407Z,26.18
2022-08-01T12:35:27.848Z,26.59
2022-08-01T12:38:00.125Z,26.58
2022-08-01T12:40:28.765Z,27.27
2022-08-01T12:42:59.573Z,27.94
2022-08-01T12:45:30.374Z,27.70
2022-08-01T12:48:00.602Z,27.17
2022-08-01T12:50:31.744Z,27.32
2022-08-01T12:52:59.571Z,28.57
2022-08-01T12:55:34.195Z,28.39
2022-08-01T12:58:05.125Z,27.55
2022-08-01T13:00:32.308Z,26.78
2022-08-01T13:03:02.235Z,28.31
2022-08-01T13:05:29.702Z,27.15
2022-08-01T13:07:56.889Z,27.06
2022-08-01T13:10:30.694Z,27.67
2022-08-01T13:12:58.741Z,27.60
2022-08-01T13:15:32.605Z,28.34
2022-08-01T13:18:00.605Z,28.10
2022-08-01T13:20:29.429Z,27.79
2022-08-01T13:22:56.798Z,25.83
2022-08-01T13:25:27.329Z,26.68
2022-08-01T13:28:13.546Z,26.50
2022-08-01T13:30:44.549Z,26.00
2022-08-01T13:33:14.567Z,25.95
2022-08-01T13:35:42.932Z,25.75
2022-08-01T13:38:10.144Z,27.57
2022-08-01T13:40:37.344Z,26.07
2022-08-01T13:43:04.807Z,26.20
2022-08-01T13:45:32.029Z,27.82
2022-08-01T13:48:12.504Z,26.69
2022-08-01T13:50:53.368Z,26.30
2022-08-01T13:53:29.314Z,25.60
2022-08-01T13:55:56.834Z,26.29
2022-08-01T13:58:24.233Z,25.11
2022-08-01T14:00:51.532Z,25.53
2022-08-01T14:03:19.021Z,25.39
2022-08-01T14:05:46.233Z,26.45
2022-08-01T14:08:13.451Z,28.08
2022-08-01T14:10:42.416Z,26.75
2022-08-01T14:13:11.609Z,26.10
2022-08-01T14:15:39.901Z,26.67
2022-08-01T14:18:09.625Z,27.79
2022-08-01T14:20:38.059Z,27.54
2022-08-01T14:23:06.390Z,27.47
2022-08-01T14:26:03.884Z,27.38
2022-08-01T14:28:28.899Z,26.26
2022-08-01T14:30:56.804Z,26.06
2022-08-01T14:33:24.172Z,26.76
2022-08-01T14:36:05.287Z,27.76
2022-08-01T14:38:38.826Z,26.12
2022-08-01T14:41:06.521Z,26.73
2022-08-01T14:43:34.194Z,26.60
2022-08-01T14:46:02.049Z,28.58
2022-08-01T14:48:30.469Z,27.26
2022-08-01T14:50:58.250Z,27.45
2022-08-01T14:53:25.724Z,27.14
2022-08-01T14:55:52.921Z,27.56
2022-08-01T14:58:20.109Z,27.65
2022-08-01T15:00:47.845Z,28.02
2022-08-01T15:03:15.141Z,26.59
2022-08-01T15:05:42.346Z,27.15
2022-08-01T15:08:10.043Z,27.91
2022-08-01T15:10:37.281Z,26.16
2022-08-01T15:13:04.564Z,26.82
2022-08-01T15:15:32.036Z,27.34
2022-08-01T15:17:59.473Z,27.87
2022-08-01T15:20:28.040Z,26.10
2022-08-01T15:22:55.538Z,26.32
2022-08-01T15:25:23.919Z,26.72
2022-08-01T15:27:51.114Z,26.03
2022-08-01T15:30:23.371Z,27.40
2022-08-01T15:32:54.721Z,26.90
2022-08-01T15:35:22.208Z,25.76
2022-08-01T15:37:50.412Z,26.49
2022-08-01T15:40:17.625Z,26.18
2022-08-01T15:42:45.300Z,26.83
2022-08-01T15:45:44.500Z,27.02
2022-08-01T15:48:04.812Z,25.87
2022-08-01T15:50:31.992Z,26.96
2022-08-01T15:52:59.232Z,26.81
2022-08-01T15:55:27.198Z,25.97
2022-08-01T15:57:54.416Z,26.82
2022-08-01T16:00:21.842Z,26.64
2022-08-01T16:02:49.342Z,27.27
2022-08-01T16:05:17.122Z,27.54
2022-08-01T16:07:59.991Z,27.37
2022-08-01T16:10:29.782Z,25.86
2022-08-01T16:12:57.415Z,26.96
2022-08-01T16:15:36.737Z,26.94
2022-08-01T16:18:05.751Z,26.40
2022-08-01T16:20:33.057Z,27.57
2022-08-01T16:23:00.307Z,28.03
2022-08-01T16:25:27.757Z,25.92
2022-08-01T16:27:54.927Z,26.22
2022-08-01T16:30:22.213Z,26.57
2022-08-01T16:32:59.375Z,27.86
2022-08-01T16:35:34.576Z,27.46
2022-08-01T16:38:07.135Z,26.80
2022-08-01T16:40:46.525Z,28.11
2022-08-01T16:43:15.912Z,26.68
2022-08-01T16:45:43.486Z,26.62
2022-08-01T16:48:12.221Z,27.28
2022-08-01T16:50:40.423Z,27.06
2022-08-01T16:53:07.610Z,26.22
2022-08-01T16:55:45.824Z,28.37
2022-08-01T16:58:19.872Z,27.05
2022-08-01T17:00:56.885Z,26.63
2022-08-01T17:03:52.721Z,27.55
2022-08-01T17:06:12.902Z,26.55
2022-08-01T17:08:46.158Z,27.63
2022-08-01T17:11:15.444Z,27.32
2022-08-01T17:13:43.045Z,27.23
2022-08-01T17:16:10.492Z,28.29
2022-08-01T17:18:37.968Z,27.29
2022-08-01T17:21:05.412Z,26.41
2022-08-01T17:23:33.828Z,27.92
2022-08-01T17:26:00.992Z,27.04
2022-08-01T17:28:28.455Z,27.22
2022-08-01T17:30:55.766Z,27.90
2022-08-01T17:33:22.952Z,27.78
2022-08-01T17:35:50.409Z,29.38
2022-08-01T17:38:18.332Z,28.41
2022-08-01T17:40:45.724Z,27.72
2022-08-01T17:43:14.115Z,28.02
2022-08-01T17:45:50.910Z,27.60
2022-08-01T17:48:19.565Z,27.19
2022-08-01T17:50:47.083Z,27.63
2022-08-01T17:53:15.049Z,27.17
2022-08-01T17:55:55.301Z,26.74
2022-08-01T17:58:36.759Z,26.97
2022-08-01T18:01:14.711Z,28.36
2022-08-01T18:03:42.633Z,27.76
2022-08-01T18:06:10.494Z,27.69
2022-08-01T18:08:40.527Z,27.76
2022-08-01T18:11:08.450Z,28.42
2022-08-01T18:13:36.696Z,27.91
2022-08-01T18:16:09.359Z,27.97
2022-08-01T18:18:36.732Z,28.24
2022-08-01T18:21:04.329Z,27.55
2022-08-01T18:23:33.601Z,27.82
2022-08-01T18:26:02.389Z,27.86
2022-08-01T18:28:34.091Z,27.76
2022-08-01T18:31:04.964Z,27.84
2022-08-01T18:33:32.264Z,27.72
2022-08-01T18:36:03.508Z,27.74
2022-08-01T18:38:32.837Z,27.78
2022-08-01T18:41:00.961Z,27.98
2022-08-01T18:43:28.675Z,27.86
2022-08-01T18:45:57.534Z,28.30
2022-08-01T18:48:24.944Z,28.02
2022-08-01T18:50:54.017Z,28.08
2022-08-01T18:53:23.902Z,28.39
2022-08-01T18:55:51.212Z,28.80
2022-08-01T18:58:18.804Z,28.65
2022-08-01T19:00:46.335Z,28.95
2022-08-01T19:03:15.418Z,29.44
2022-08-01T19:05:43.078Z,29.36
2022-08-01T19:08:11.421Z,29.06
2022-08-01T19:10:39.277Z,28.97
2022-08-01T19:13:07.739Z,29.76
2022-08-01T19:15:35.965Z,29.58
2022-08-01T19:18:03.523Z,29.33
2022-08-01T19:20:30.747Z,29.61
2022-08-01T19:22:58.261Z,29.64
2022-08-01T19:25:25.471Z,29.65
2022-08-01T19:27:53.098Z,30.58
2022-08-01T19:30:20.567Z,30.94
2022-08-01T19:32:48.915Z,30.66
2022-08-01T19:35:17.145Z,30.62
2022-08-01T19:37:46.032Z,30.63
2022-08-01T19:40:26.809Z,30.89
2022-08-01T19:42:56.550Z,30.80
2022-08-01T19:45:24.668Z,30.70
2022-08-01T19:47:56.804Z,30.62
2022-08-01T19:50:41.050Z,30.67
2022-08-01T19:53:08.345Z,31.32
2022-08-01T19:55:39.288Z,31.42
2022-08-01T20:00:54.732Z,31.43
2022-08-01T20:03:22.369Z,31.37
2022-08-01T20:05:51.036Z,31.33
2022-08-01T20:08:18.247Z,32.29
2022-08-01T20:10:46.098Z,31.74
2022-08-01T20:13:13.314Z,31.88
2022-08-01T20:15:40.524Z,31.63
2022-08-01T20:18:08.062Z,32.32
2022-08-01T20:20:35.384Z,31.84
2022-08-01T20:23:02.562Z,32.09
2022-08-01T20:25:39.634Z,32.29
2022-08-01T20:28:11.209Z,32.38
2022-08-01T20:30:39.086Z,32.03
2022-08-01T20:33:06.803Z,31.94
2022-08-01T20:35:52.342Z,32.58
2022-08-01T20:38:22.920Z,32.08
2022-08-01T20:40:54.049Z,32.65
2022-08-01T20:43:21.922Z,32.80
2022-08-01T20:45:49.461Z,32.79
2022-08-01T20:48:18.099Z,32.75
2022-08-01T20:51:04.880Z,32.46
2022-08-01T20:53:35.226Z,33.22
2022-08-01T20:56:26.253Z,33.20
2022-08-01T20:58:59.484Z,33.54
2022-08-01T21:01:28.858Z,33.52
2022-08-01T21:04:05.033Z,33.09
2022-08-01T21:06:34.305Z,32.69
2022-08-01T21:09:02.362Z,33.44
2022-08-01T21:11:31.125Z,32.90
2022-08-01T21:13:58.591Z,32.49
2022-08-01T21:16:26.672Z,33.18
2022-08-01T21:19:18.488Z,32.22
2022-08-01T21:21:50.029Z,32.34
2022-08-01T21:24:18.668Z,32.35
2022-08-01T21:26:46.585Z,32.61
2022-08-01T21:29:14.005Z,32.46
2022-08-01T21:31:41.570Z,32.25
2022-08-01T21:34:09.571Z,32.95
2022-08-01T21:36:36.788Z,32.51
2022-08-01T21:39:05.667Z,32.17
2022-08-01T21:42:03.375Z,32.56
2022-08-01T21:44:20.334Z,32.82
2022-08-01T21:46:48.398Z,32.69
2022-08-01T21:49:15.827Z,32.37
2022-08-01T21:51:45.663Z,32.72
2022-08-01T21:54:27.400Z,32.69
2022-08-01T21:57:13.505Z,32.25
2022-08-01T21:59:51.581Z,32.46
2022-08-01T22:02:25.058Z,32.46
2022-08-01T22:04:53.471Z,32.57
2022-08-01T22:07:21.021Z,32.85
2022-08-01T22:09:51.535Z,33.04
2022-08-01T22:12:19.481Z,33.06
2022-08-01T22:14:48.071Z,33.05
2022-08-01T22:17:17.722Z,32.87
2022-08-01T22:19:48.599Z,33.07
2022-08-01T22:22:50.453Z,33.25
2022-08-01T22:25:06.907Z,33.48
2022-08-01T22:28:06.106Z,34.11
2022-08-01T22:30:21.814Z,33.62
2022-08-01T22:33:15.647Z,34.73
2022-08-01T22:35:36.662Z,34.74
2022-08-01T22:38:07.289Z,33.97
2022-08-01T22:40:40.429Z,33.77
2022-08-01T22:43:10.978Z,34.11
2022-08-01T22:46:10.754Z,34.02
2022-08-01T22:48:51.828Z,34.13
2022-08-01T22:51:22.349Z,34.42
2022-08-01T22:53:53.827Z,35.24
2022-08-01T22:56:21.403Z,34.22
2022-08-01T22:58:48.592Z,34.54
2022-08-01T23:01:21.026Z,34.20
2022-08-01T23:03:50.077Z,34.15
2022-08-01T23:06:21.256Z,34.57
2022-08-01T23:08:49.181Z,34.73
2022-08-01T23:11:16.381Z,35.07
2022-08-01T23:13:43.579Z,34.50
2022-08-01T23:16:14.390Z,34.63
2022-08-01T23:18:46.076Z,34.37
2022-08-01T23:21:15.780Z,34.89
2022-08-01T23:23:42.957Z,34.57
2022-08-01T23:26:10.139Z,35.69
2022-08-01T23:28:37.600Z,35.30
2022-08-01T23:31:04.967Z,34.53
2022-08-01T23:33:32.159Z,34.42
2022-08-01T23:35:59.762Z,34.48
2022-08-01T23:38:26.941Z,34.46
2022-08-01T23:40:54.139Z,35.25
2022-08-01T23:43:21.646Z,35.21
2022-08-01T23:46:03.265Z,34.91
2022-08-01T23:48:36.805Z,35.36
2022-08-01T23:51:05.202Z,35.38
2022-08-01T23:53:33.717Z,35.03
2022-08-01T23:56:03.654Z,34.53
2022-08-01T23:58:33.478Z,35.00
